createdAt,value
2018-03-16T00:00:28.353Z,8.23
2018-03-16T00:02:54.830Z,8.97
2018-03-16T00:05:21.279Z,9.43
2018-03-16T00:07:47.829Z,9.23
2018-03-16T00:10:14.288Z,8.93
2018-03-16T00:12:40.732Z,9.30
2018-03-16T00:15:07.117Z,8.50
2018-03-16T00:17:33.526Z,8.10
2018-03-16T00:19:59.946Z,8.53
2018-03-16T00:22:37.369Z,8.83
2018-03-16T00:25:03.873Z,7.97
2018-03-16T00:27:30.242Z,7.00
2018-03-16T00:29:56.918Z,6.60
2018-03-16T00:32:23.380Z,6.87
2018-03-16T00:34:49.965Z,7.00
2018-03-16T00:37:16.354Z,6.20
2018-03-16T00:39:42.754Z,5.67
2018-03-16T00:42:09.211Z,5.97
2018-03-16T00:44:35.688Z,5.53
2018-03-16T00:47:02.066Z,6.47
2018-03-16T00:49:28.452Z,6.47
2018-03-16T00:51:54.878Z,6.20
2018-03-16T00:54:21.285Z,6.67
2018-03-16T00:56:47.646Z,6.70
2018-03-16T00:59:14.078Z,6.77
2018-03-16T01:01:40.477Z,7.07
2018-03-16T01:04:07.050Z,6.57
2018-03-16T01:06:33.530Z,7.87
2018-03-16T01:08:59.921Z,8.40
2018-03-16T01:11:26.311Z,8.00
2018-03-16T01:13:52.704Z,7.80
2018-03-16T01:16:19.109Z,8.17
2018-03-16T01:18:45.486Z,9.00
2018-03-16T01:21:11.897Z,8.27
2018-03-16T01:23:38.285Z,9.03
2018-03-16T01:26:04.714Z,8.00
2018-03-16T01:28:31.106Z,7.80
2018-03-16T01:30:57.490Z,7.53
2018-03-16T01:33:23.937Z,7.67
2018-03-16T01:35:50.349Z,7.60
2018-03-16T01:38:16.784Z,7.90
2018-03-16T01:40:43.209Z,7.93
2018-03-16T01:43:09.570Z,9.93
2018-03-16T01:45:35.974Z,9.53
2018-03-16T01:48:02.405Z,9.50
2018-03-16T01:50:28.818Z,10.00
2018-03-16T01:53:02.336Z,9.93
2018-03-16T01:55:28.774Z,10.77
2018-03-16T01:57:55.186Z,10.30
2018-03-16T02:00:21.541Z,10.87
2018-03-16T02:02:47.922Z,10.87
2018-03-16T02:05:14.350Z,10.30
2018-03-16T02:07:40.690Z,10.63
2018-03-16T02:10:07.079Z,11.37
2018-03-16T02:12:33.493Z,11.23
2018-03-16T02:14:59.830Z,10.47
2018-03-16T02:17:26.267Z,10.27
2018-03-16T02:19:52.634Z,9.93
2018-03-16T02:22:19.238Z,9.90
2018-03-16T02:24:45.593Z,10.00
2018-03-16T02:27:11.987Z,10.07
2018-03-16T02:29:38.364Z,11.23
2018-03-16T02:32:04.771Z,10.50
2018-03-16T02:34:31.326Z,9.77
2018-03-16T02:36:57.703Z,9.70
2018-03-16T02:39:24.056Z,9.87
2018-03-16T02:41:50.469Z,10.00
2018-03-16T02:44:16.990Z,10.43
2018-03-16T02:46:43.411Z,10.70
2018-03-16T02:49:09.894Z,8.93
2018-03-16T02:51:36.234Z,9.63
2018-03-16T02:54:02.639Z,10.63
2018-03-16T02:56:29.007Z,10.23
2018-03-16T02:58:55.361Z,9.90
2018-03-16T03:01:21.746Z,9.90
2018-03-16T03:03:48.103Z,10.20
2018-03-16T03:06:14.457Z,9.67
2018-03-16T03:08:40.890Z,11.23
2018-03-16T03:11:07.258Z,10.33
2018-03-16T03:13:33.646Z,9.60
2018-03-16T03:16:00.060Z,10.00
2018-03-16T03:18:26.545Z,10.57
2018-03-16T03:20:52.986Z,10.47
2018-03-16T03:23:19.377Z,11.10
2018-03-16T03:25:45.879Z,12.37
2018-03-16T03:28:12.266Z,13.63
2018-03-16T03:30:38.634Z,13.40
2018-03-16T03:33:05.059Z,12.93
2018-03-16T03:35:31.468Z,11.87
2018-03-16T03:37:57.945Z,12.37
2018-03-16T03:40:24.385Z,12.63
2018-03-16T03:42:50.950Z,11.10
2018-03-16T03:45:17.302Z,11.60
2018-03-16T03:47:43.678Z,11.87
2018-03-16T03:50:10.067Z,11.47
2018-03-16T03:52:36.418Z,11.70
2018-03-16T03:55:02.840Z,11.63
2018-03-16T03:57:29.194Z,12.70
2018-03-16T03:59:55.597Z,13.57
2018-03-16T04:02:22.010Z,13.53
2018-03-16T04:04:48.373Z,14.20
2018-03-16T04:07:14.762Z,14.13
2018-03-16T04:09:41.154Z,14.33
2018-03-16T04:12:07.505Z,14.37
2018-03-16T04:14:33.857Z,12.77
2018-03-16T04:17:00.263Z,12.70
2018-03-16T04:19:26.597Z,12.03
2018-03-16T04:21:53.178Z,13.10
2018-03-16T04:24:19.590Z,11.63
2018-03-16T04:26:45.950Z,10.97
2018-03-16T04:29:12.306Z,10.67
2018-03-16T04:31:38.655Z,10.63
2018-03-16T04:34:05.002Z,10.80
2018-03-16T04:36:31.381Z,11.73
2018-03-16T04:38:57.741Z,11.57
2018-03-16T04:41:24.223Z,12.30
2018-03-16T04:43:50.586Z,12.27
2018-03-16T04:46:16.933Z,11.83
2018-03-16T04:48:43.309Z,12.33
2018-03-16T04:51:12.826Z,12.17
2018-03-16T04:53:39.173Z,13.17
2018-03-16T04:56:05.542Z,13.47
2018-03-16T04:58:31.930Z,12.97
2018-03-16T05:00:58.334Z,12.60
2018-03-16T05:03:24.790Z,11.53
2018-03-16T05:05:51.298Z,12.77
2018-03-16T05:08:17.735Z,12.47
2018-03-16T05:10:44.084Z,11.97
2018-03-16T05:13:10.502Z,12.83
2018-03-16T05:15:36.904Z,12.53
2018-03-16T05:18:03.306Z,12.07
2018-03-16T05:20:29.683Z,14.87
2018-03-16T05:22:56.150Z,14.60
2018-03-16T05:25:22.537Z,18.57
2018-03-16T05:27:48.917Z,14.73
2018-03-16T05:30:15.321Z,14.30
2018-03-16T05:32:41.702Z,18.20
2018-03-16T05:35:08.058Z,17.37
2018-03-16T05:37:34.409Z,15.60
2018-03-16T05:40:00.762Z,15.20
2018-03-16T05:42:27.109Z,18.63
2018-03-16T05:44:53.498Z,17.90
2018-03-16T05:47:19.870Z,17.47
2018-03-16T05:49:46.246Z,20.20
2018-03-16T05:52:12.657Z,19.17
2018-03-16T05:54:39.057Z,20.00
2018-03-16T05:57:05.468Z,18.97
2018-03-16T05:59:31.819Z,20.67
2018-03-16T06:01:58.182Z,22.63
2018-03-16T06:04:24.582Z,24.17
2018-03-16T06:06:50.974Z,24.77
2018-03-16T06:09:17.478Z,21.90
2018-03-16T06:11:44.009Z,23.60
2018-03-16T06:14:10.374Z,20.93
2018-03-16T06:16:36.754Z,21.87
2018-03-16T06:19:03.141Z,23.73
2018-03-16T06:21:29.513Z,24.07
2018-03-16T06:23:56.090Z,21.97
2018-03-16T06:26:22.767Z,24.13
2018-03-16T06:28:49.566Z,21.50
2018-03-16T06:31:15.985Z,20.00
2018-03-16T06:33:42.457Z,22.30
2018-03-16T06:36:09.051Z,26.30
2018-03-16T06:38:35.534Z,23.67
2018-03-16T06:41:02.026Z,22.43
2018-03-16T06:43:28.393Z,22.43
2018-03-16T06:45:54.726Z,20.60
2018-03-16T06:48:21.161Z,20.37
2018-03-16T06:50:47.718Z,20.97
2018-03-16T06:53:14.062Z,20.80
2018-03-16T06:55:40.469Z,20.37
2018-03-16T06:58:06.814Z,16.20
2018-03-16T07:00:33.425Z,15.47
2018-03-16T07:02:59.837Z,14.53
2018-03-16T07:05:26.273Z,14.13
2018-03-16T07:07:52.685Z,14.27
2018-03-16T07:10:19.058Z,13.63
2018-03-16T07:12:45.477Z,14.73
2018-03-16T07:15:24.159Z,14.67
2018-03-16T07:17:50.568Z,16.70
2018-03-16T07:20:16.977Z,15.83
2018-03-16T07:22:43.414Z,16.47
2018-03-16T07:25:09.890Z,17.07
2018-03-16T07:27:36.262Z,18.03
2018-03-16T07:30:02.735Z,19.37
2018-03-16T07:32:29.145Z,18.80
2018-03-16T07:34:55.485Z,19.63
2018-03-16T07:37:21.856Z,19.40
2018-03-16T07:39:48.326Z,19.20
2018-03-16T07:42:14.702Z,21.30
2018-03-16T07:44:41.110Z,22.10
2018-03-16T07:47:07.502Z,23.17
2018-03-16T07:49:34.005Z,14.90
2018-03-16T07:52:00.380Z,20.00
2018-03-16T07:54:26.783Z,18.40
2018-03-16T07:56:53.205Z,17.07
2018-03-16T07:59:19.550Z,12.90
2018-03-16T08:01:45.914Z,10.13
2018-03-16T08:04:12.302Z,10.53
2018-03-16T08:06:38.801Z,14.20
2018-03-16T08:09:05.487Z,13.93
2018-03-16T08:11:32.138Z,14.40
2018-03-16T08:13:58.662Z,12.77
2018-03-16T08:16:25.067Z,11.63
2018-03-16T08:18:51.522Z,13.17
2018-03-16T08:21:17.921Z,9.90
2018-03-16T08:23:44.326Z,8.43
2018-03-16T08:26:10.769Z,8.30
2018-03-16T08:28:37.149Z,7.77
2018-03-16T08:31:03.546Z,7.40
2018-03-16T08:33:29.938Z,6.63
2018-03-16T08:35:56.271Z,7.27
2018-03-16T08:38:22.755Z,6.63
2018-03-16T08:40:49.201Z,6.87
2018-03-16T08:43:15.578Z,5.83
2018-03-16T08:45:41.934Z,7.10
2018-03-16T08:48:08.401Z,6.10
2018-03-16T08:50:34.810Z,6.27
2018-03-16T08:53:01.410Z,6.47
2018-03-16T08:55:27.810Z,7.80
2018-03-16T08:57:54.175Z,7.30
2018-03-16T09:00:20.579Z,5.93
2018-03-16T09:02:47.026Z,5.37
2018-03-16T09:05:13.469Z,5.30
2018-03-16T09:07:39.838Z,5.60
2018-03-16T09:10:06.274Z,5.53
2018-03-16T09:12:32.790Z,5.40
2018-03-16T09:14:59.142Z,7.17
2018-03-16T09:17:25.575Z,6.90
2018-03-16T09:19:52.223Z,5.77
2018-03-16T09:22:18.775Z,6.20
2018-03-16T09:24:45.159Z,4.47
2018-03-16T09:27:11.609Z,5.60
2018-03-16T09:29:38.135Z,5.97
2018-03-16T09:32:04.561Z,4.73
2018-03-16T09:34:30.894Z,5.27
2018-03-16T09:36:57.358Z,4.20
2018-03-16T09:39:23.746Z,4.30
2018-03-16T09:41:50.175Z,4.73
2018-03-16T09:44:16.550Z,4.57
2018-03-16T09:46:42.976Z,4.47
2018-03-16T09:49:09.523Z,4.00
2018-03-16T09:51:35.925Z,4.20
2018-03-16T09:54:02.292Z,4.63
2018-03-16T09:56:28.706Z,3.80
2018-03-16T09:58:55.181Z,4.10
2018-03-16T10:01:21.581Z,4.23
2018-03-16T10:03:48.006Z,3.67
2018-03-16T10:06:14.438Z,4.20
2018-03-16T10:08:40.851Z,3.80
2018-03-16T10:11:07.280Z,4.47
2018-03-16T10:13:33.646Z,3.30
2018-03-16T10:16:00.022Z,4.20
2018-03-16T10:18:26.389Z,4.90
2018-03-16T10:20:52.820Z,4.30
2018-03-16T10:23:19.225Z,4.53
2018-03-16T10:25:45.618Z,3.83
2018-03-16T10:28:12.372Z,4.50
2018-03-16T10:30:38.782Z,3.77
2018-03-16T10:33:05.175Z,4.40
2018-03-16T10:35:31.708Z,4.30
2018-03-16T10:37:58.114Z,4.17
2018-03-16T10:40:24.497Z,3.73
2018-03-16T10:42:50.869Z,3.90
2018-03-16T10:45:17.311Z,3.80
2018-03-16T10:47:43.822Z,4.20
2018-03-16T10:50:10.434Z,4.63
2018-03-16T10:52:36.913Z,4.53
2018-03-16T10:55:03.402Z,4.20
2018-03-16T10:57:29.830Z,4.60
2018-03-16T10:59:56.301Z,4.03
2018-03-16T11:02:22.707Z,3.70
2018-03-16T11:04:55.162Z,4.10
2018-03-16T11:07:21.561Z,3.70
2018-03-16T11:09:48.004Z,5.67
2018-03-16T11:12:14.389Z,4.10
2018-03-16T11:14:40.770Z,4.53
2018-03-16T11:17:07.329Z,3.80
2018-03-16T11:19:33.832Z,4.03
2018-03-16T11:22:00.194Z,4.47
2018-03-16T11:24:26.587Z,4.23
2018-03-16T11:26:52.998Z,3.87
2018-03-16T11:29:19.442Z,3.50
2018-03-16T11:31:45.950Z,3.97
2018-03-16T11:34:12.358Z,3.60
2018-03-16T11:36:38.706Z,3.93
2018-03-16T11:39:05.141Z,4.73
2018-03-16T11:41:31.599Z,4.50
2018-03-16T11:43:57.991Z,4.50
2018-03-16T11:46:24.437Z,4.37
2018-03-16T11:48:50.941Z,4.40
2018-03-16T11:51:17.533Z,4.13
2018-03-16T11:53:43.992Z,4.00
2018-03-16T11:56:10.425Z,4.03
2018-03-16T11:58:36.810Z,4.07
2018-03-16T12:01:03.291Z,4.40
2018-03-16T12:03:29.709Z,6.23
2018-03-16T12:05:56.108Z,4.50
2018-03-16T12:08:22.492Z,4.70
2018-03-16T12:10:48.883Z,4.50
2018-03-16T12:13:15.298Z,3.83
2018-03-16T12:15:41.700Z,4.10
2018-03-16T12:18:08.131Z,4.07
2018-03-16T12:20:34.689Z,3.93
2018-03-16T12:23:01.089Z,3.37
2018-03-16T12:25:27.566Z,3.70
2018-03-16T12:27:54.038Z,3.40
2018-03-16T12:30:20.421Z,4.30
2018-03-16T12:32:46.861Z,4.47
2018-03-16T12:35:13.335Z,3.30
2018-03-16T12:37:39.710Z,3.90
2018-03-16T12:40:06.186Z,4.03
2018-03-16T12:42:32.639Z,3.47
2018-03-16T12:44:59.072Z,4.57
2018-03-16T12:47:25.506Z,3.50
2018-03-16T12:49:51.890Z,3.93
2018-03-16T12:52:18.278Z,3.00
2018-03-16T12:54:44.688Z,3.83
2018-03-16T12:57:11.218Z,3.77
2018-03-16T12:59:37.688Z,3.63
2018-03-16T13:02:04.166Z,3.90
2018-03-16T13:04:30.659Z,3.73
2018-03-16T13:06:57.134Z,2.87
2018-03-16T13:09:23.529Z,3.20
2018-03-16T13:11:49.998Z,3.10
2018-03-16T13:14:16.397Z,3.07
2018-03-16T13:16:42.774Z,3.90
2018-03-16T13:19:09.207Z,3.90
2018-03-16T13:21:35.617Z,2.70
2018-03-16T13:24:02.070Z,2.97
2018-03-16T13:26:28.519Z,2.70
2018-03-16T13:28:54.917Z,3.50
2018-03-16T13:31:21.339Z,3.07
2018-03-16T13:33:48.230Z,3.67
2018-03-16T13:36:14.850Z,3.23
2018-03-16T13:38:41.296Z,3.03
2018-03-16T13:41:07.756Z,3.50
2018-03-16T13:43:34.130Z,3.13
2018-03-16T13:46:00.659Z,3.10
2018-03-16T13:48:27.089Z,3.33
2018-03-16T13:50:53.466Z,3.50
2018-03-16T13:53:19.886Z,3.30
2018-03-16T13:55:46.276Z,3.27
2018-03-16T13:58:12.661Z,3.50
2018-03-16T14:00:39.125Z,3.37
2018-03-16T14:03:05.518Z,3.20
2018-03-16T14:05:31.888Z,3.10
2018-03-16T14:07:58.302Z,3.27
2018-03-16T14:10:24.798Z,3.33
2018-03-16T14:12:51.285Z,3.47
2018-03-16T14:15:17.782Z,3.73
2018-03-16T14:17:44.996Z,3.70
2018-03-16T14:20:11.366Z,3.30
2018-03-16T14:22:38.071Z,3.30
2018-03-16T14:25:04.551Z,3.80
2018-03-16T14:27:30.969Z,3.00
2018-03-16T14:29:57.465Z,3.03
2018-03-16T14:32:23.881Z,3.30
2018-03-16T14:34:50.578Z,3.53
2018-03-16T14:37:17.010Z,4.17
2018-03-16T14:39:43.350Z,4.37
2018-03-16T14:42:09.727Z,5.13
2018-03-16T14:44:36.208Z,5.30
2018-03-16T14:47:02.634Z,4.43
2018-03-16T14:49:29.143Z,3.77
2018-03-16T14:51:55.563Z,4.40
2018-03-16T14:54:21.969Z,5.07
2018-03-16T14:56:48.404Z,4.83
2018-03-16T14:59:14.830Z,4.37
2018-03-16T15:01:41.278Z,5.10
2018-03-16T15:04:07.869Z,6.33
2018-03-16T15:06:34.362Z,5.80
2018-03-16T15:09:00.815Z,6.57
2018-03-16T15:11:27.182Z,6.20
2018-03-16T15:13:53.644Z,5.53
2018-03-16T15:16:19.986Z,6.03
2018-03-16T15:18:46.353Z,5.63
2018-03-16T15:21:12.722Z,5.87
2018-03-16T15:23:39.135Z,6.33
2018-03-16T15:26:05.574Z,6.73
2018-03-16T15:28:32.281Z,6.20
2018-03-16T15:30:58.710Z,5.67
2018-03-16T15:33:25.259Z,6.53
2018-03-16T15:35:51.890Z,7.27
2018-03-16T15:38:18.325Z,5.87
2018-03-16T15:40:44.703Z,6.87
2018-03-16T15:43:11.189Z,7.13
2018-03-16T15:45:37.611Z,6.20
2018-03-16T15:48:04.084Z,7.47
2018-03-16T15:50:30.522Z,6.97
2018-03-16T15:52:58.243Z,6.27
2018-03-16T15:55:24.687Z,7.20
2018-03-16T15:57:51.054Z,15.30
2018-03-16T16:00:17.437Z,10.77
2018-03-16T16:02:43.795Z,12.47
2018-03-16T16:05:10.138Z,9.70
2018-03-16T16:07:36.574Z,9.50
2018-03-16T16:10:03.043Z,9.50
2018-03-16T16:12:29.439Z,8.57
2018-03-16T16:14:55.847Z,9.57
2018-03-16T16:17:22.210Z,10.90
2018-03-16T16:19:48.634Z,10.67
2018-03-16T16:22:15.158Z,11.77
2018-03-16T16:24:41.619Z,8.97
2018-03-16T16:27:08.079Z,8.33
2018-03-16T16:29:34.526Z,9.83
2018-03-16T16:32:00.937Z,10.23
2018-03-16T16:34:27.323Z,10.80
2018-03-16T16:36:53.781Z,9.27
2018-03-16T16:39:20.234Z,9.27
2018-03-16T16:41:46.793Z,8.93
2018-03-16T16:44:13.315Z,9.57
2018-03-16T16:46:39.771Z,10.07
2018-03-16T16:49:06.211Z,9.77
2018-03-16T16:51:32.698Z,10.37
2018-03-16T16:53:59.097Z,9.50
2018-03-16T16:56:25.458Z,28.27
2018-03-16T16:58:51.995Z,20.90
2018-03-16T17:01:18.329Z,10.77
2018-03-16T17:03:44.729Z,8.40
2018-03-16T17:06:11.185Z,7.97
2018-03-16T17:08:37.741Z,9.07
2018-03-16T17:11:04.216Z,11.63
2018-03-16T17:13:30.570Z,10.13
2018-03-16T17:15:56.970Z,12.47
2018-03-16T17:18:23.366Z,11.90
2018-03-16T17:20:49.734Z,15.33
2018-03-16T17:23:16.169Z,11.87
2018-03-16T17:25:42.672Z,9.80
2018-03-16T17:28:09.067Z,11.60
2018-03-16T17:30:35.522Z,8.43
2018-03-16T17:33:01.934Z,9.83
2018-03-16T17:35:28.338Z,8.10
2018-03-16T17:37:54.774Z,8.70
2018-03-16T17:40:21.174Z,8.80
2018-03-16T17:42:47.562Z,9.33
2018-03-16T17:45:14.090Z,8.97
2018-03-16T17:47:40.453Z,9.37
2018-03-16T17:50:06.885Z,8.70
2018-03-16T17:52:33.273Z,9.67
2018-03-16T17:54:59.676Z,8.23
2018-03-16T17:57:26.112Z,8.53
2018-03-16T17:59:53.074Z,8.63
2018-03-16T18:02:19.531Z,8.20
2018-03-16T18:04:46.907Z,8.57
2018-03-16T18:07:13.945Z,8.10
2018-03-16T18:09:40.389Z,9.00
2018-03-16T18:12:06.786Z,7.60
2018-03-16T18:14:33.211Z,8.80
2018-03-16T18:16:59.693Z,10.30
2018-03-16T18:19:26.429Z,10.30
2018-03-16T18:21:52.818Z,10.43
2018-03-16T18:24:19.254Z,9.90
2018-03-16T18:26:45.665Z,10.27
2018-03-16T18:29:12.370Z,9.50
2018-03-16T18:31:38.935Z,10.07
2018-03-16T18:34:05.333Z,9.23
2018-03-16T18:36:31.762Z,10.80
2018-03-16T18:38:58.166Z,10.50
2018-03-16T18:41:24.572Z,9.33
2018-03-16T18:43:50.986Z,7.37
2018-03-16T18:46:17.358Z,8.33
2018-03-16T18:48:43.897Z,8.23
2018-03-16T18:51:10.286Z,10.03
2018-03-16T18:53:36.711Z,11.73
2018-03-16T18:56:03.129Z,8.70
2018-03-16T18:58:29.582Z,8.80
2018-03-16T19:00:56.026Z,9.97
2018-03-16T19:03:22.471Z,8.90
2018-03-16T19:05:48.915Z,9.43
2018-03-16T19:08:15.294Z,9.57
2018-03-16T19:10:41.675Z,9.97
2018-03-16T19:13:08.149Z,8.60
2018-03-16T19:15:34.594Z,8.50
2018-03-16T19:18:00.986Z,9.10
2018-03-16T19:20:27.559Z,10.30
2018-03-16T19:22:54.000Z,8.03
2018-03-16T19:25:20.628Z,8.80
2018-03-16T19:27:47.260Z,8.47
2018-03-16T19:30:13.673Z,9.83
2018-03-16T19:32:40.099Z,9.27
2018-03-16T19:35:06.550Z,10.47
2018-03-16T19:50:38.674Z,8.47
2018-03-16T19:53:05.009Z,8.07
2018-03-16T19:55:31.421Z,8.10
2018-03-16T19:57:57.890Z,7.70
2018-03-16T20:00:24.329Z,7.47
2018-03-16T20:02:50.792Z,7.83
2018-03-16T20:05:17.162Z,9.10
2018-03-16T20:07:43.628Z,7.63
2018-03-16T20:10:10.046Z,7.63
2018-03-16T20:12:36.489Z,7.10
2018-03-16T20:15:02.926Z,6.07
2018-03-16T20:17:29.386Z,5.63
2018-03-16T20:19:55.790Z,5.87
2018-03-16T20:22:29.176Z,6.13
2018-03-16T20:24:55.857Z,6.37
2018-03-16T20:27:22.247Z,6.63
2018-03-16T20:29:48.697Z,5.53
2018-03-16T20:32:15.125Z,6.90
2018-03-16T20:34:41.525Z,5.90
2018-03-16T20:37:07.994Z,7.00
2018-03-16T20:39:34.437Z,6.30
2018-03-16T20:42:00.841Z,7.43
2018-03-16T20:44:28.189Z,7.60
2018-03-16T20:46:54.719Z,6.37
2018-03-16T20:49:21.162Z,5.87
2018-03-16T20:51:47.597Z,5.97
2018-03-16T20:54:14.003Z,7.10
2018-03-16T20:56:40.386Z,5.63
2018-03-16T20:59:06.818Z,6.80
2018-03-16T21:01:33.229Z,7.10
2018-03-16T21:03:59.645Z,4.17
2018-03-16T21:06:25.991Z,5.00
2018-03-16T21:08:52.391Z,4.87
2018-03-16T21:11:18.802Z,5.00
2018-03-16T21:13:45.301Z,5.10
2018-03-16T21:16:11.722Z,4.67
2018-03-16T21:18:38.410Z,5.70
2018-03-16T21:21:04.810Z,5.30
2018-03-16T21:23:31.276Z,5.03
2018-03-16T21:25:57.666Z,4.60
2018-03-16T21:28:24.083Z,4.30
2018-03-16T21:30:50.546Z,4.20
2018-03-16T21:33:16.973Z,3.77
2018-03-16T21:35:43.554Z,3.90
2018-03-16T21:38:09.955Z,3.80
2018-03-16T21:40:36.315Z,3.60
2018-03-16T21:43:02.806Z,3.90
2018-03-16T21:45:29.222Z,3.50
2018-03-16T21:47:55.708Z,4.73
2018-03-16T21:50:22.542Z,5.00
2018-03-16T21:52:48.929Z,7.80
2018-03-16T21:55:15.284Z,10.10
2018-03-16T21:57:41.774Z,10.57
2018-03-16T22:00:09.942Z,10.90
2018-03-16T22:02:38.118Z,10.53
2018-03-16T22:05:05.825Z,11.23
2018-03-16T22:07:32.182Z,10.53
2018-03-16T22:09:59.194Z,9.90
2018-03-16T22:12:25.591Z,10.73
2018-03-16T22:14:51.954Z,11.13
2018-03-16T22:17:18.378Z,10.83
2018-03-16T22:19:44.806Z,9.67
2018-03-16T22:22:11.318Z,8.30
2018-03-16T22:24:37.675Z,9.80
2018-03-16T22:27:04.034Z,8.83
2018-03-16T22:29:30.437Z,9.27
2018-03-16T22:31:56.796Z,8.70
2018-03-16T22:34:23.253Z,8.90
2018-03-16T22:36:49.841Z,9.10
2018-03-16T22:39:16.222Z,9.07
2018-03-16T22:41:42.630Z,8.40
2018-03-16T22:44:09.048Z,8.40
2018-03-16T22:46:35.443Z,7.80
2018-03-16T22:49:01.894Z,9.00
2018-03-16T22:51:28.266Z,10.77
2018-03-16T22:53:54.686Z,11.90
2018-03-16T22:56:21.238Z,12.47
2018-03-16T22:58:47.859Z,11.33
2018-03-16T23:01:14.225Z,11.03
2018-03-16T23:03:40.678Z,11.27
2018-03-16T23:06:07.045Z,10.90
2018-03-16T23:08:33.422Z,7.70
2018-03-16T23:10:59.859Z,7.47
2018-03-16T23:13:26.223Z,7.00
2018-03-16T23:15:52.721Z,5.37
2018-03-16T23:18:19.214Z,6.30
2018-03-16T23:20:45.586Z,6.33
2018-03-16T23:23:11.933Z,8.07
2018-03-16T23:25:38.409Z,8.10
2018-03-16T23:28:04.989Z,9.43
2018-03-16T23:30:31.418Z,9.77
2018-03-16T23:32:57.801Z,10.77
2018-03-16T23:35:24.217Z,10.37
2018-03-16T23:37:50.682Z,11.20
2018-03-16T23:40:17.098Z,10.53
2018-03-16T23:42:43.567Z,9.17
2018-03-16T23:45:10.045Z,9.73
2018-03-16T23:47:36.454Z,9.73
2018-03-16T23:50:02.924Z,8.70
2018-03-16T23:52:29.318Z,10.17
2018-03-16T23:54:55.733Z,9.57
2018-03-16T23:57:22.154Z,10.37
2018-03-16T23:59:48.547Z,10.10
